Nearby METAR Reports

 

KORH - Worcester, Massachusetts, USA
Distance from station: NW 4mi, 7km
Updated: Wed, 24-Apr-2019 5:54pm EDT
Partly cloudy
Partly cloudy
 Wind from WNW
Wind: WNW 12 mph , 19 km/h, Gust: 22 mph , 35 km/h
Temperature: 55°F , 13°C
Dew Point: 37°F , 3°C
Humidity: 51%
Barometer: 29.77 inHg , 1008.1 hPa
Clouds: Partly cloudy
Visibility: 10 miles , 16 km
Cloud details: Partly cloudy 4100 ft
2019/04/24 21:54 KORH 242154Z 29010G19KT 10SM SCT041 13/03 A2977 RMK AO2 PK WND 31027/2105 SLP083 T01280033
KBOS - Boston, Massachusetts, USA
Distance from station: ENE 42mi, 68km
Updated: Wed, 24-Apr-2019 6:27pm EDT
Mostly cloudy
Mostly cloudy
 Wind from E
Wind: E 13 mph , 20 km/h
Temperature: 50°F , 10°C
Wind Chill: 45°F , 7°C
Dew Point: 45°F , 7°C
Humidity: 82%
Barometer: 29.76 inHg , 1007.8 hPa
Clouds: Mostly cloudy
Visibility: 10 miles , 16 km
Cloud details: Mostly cloudy 5500 ft
2019/04/24 22:27 KBOS 242227Z 09011KT 10SM BKN055 10/07 A2976 RMK AO2 WSHFT 2207 T01000067
 
KCQX - Chatham, Massachusetts, USA
Distance from station: SE 102mi, 164km
Updated: Wed, 24-Apr-2019 8:03am EDT
NOT Current
Mist, Overcast
Mist, Overcast
 Wind from S
Wind: S 9 mph , 15 km/h, Gust: 16 mph , 26 km/h
Temperature: 50°F , 10°C
Wind Chill: 46°F , 8°C
Dew Point: 48°F , 9°C
Humidity: 94%
Barometer: 29.69 inHg , 1005.4 hPa
Summary: Mist
Clouds: Overcast
Visibility: 2 miles , 3 km
Cloud details: Overcast 200 ft
2019/04/24 12:03 KCQX 241203Z AUTO 19008G14KT 140V220 2SM BR OVC002 10/09 A2969 RMK AO2 T01000094
KMVY - Marthas Vineyard, Massachusetts, USA
Distance from station: SE 84mi, 135km
Updated: Wed, 24-Apr-2019 5:53pm EDT
Clear
Clear
 Wind from ENE
Wind: ENE 12 mph , 19 km/h
Temperature: 61°F , 16°C
Dew Point: 48°F , 9°C
Humidity: 63%
Barometer: 29.72 inHg , 1006.4 hPa
Clouds: Clear
Visibility: 10 miles , 16 km
2019/04/24 21:53 KMVY 242153Z AUTO 07010KT 10SM CLR 16/09 A2972 RMK AO2 WSHFT 2127 SLP064 T01560089
 
KPVC - Provincetown, Massachusetts, USA
Distance from station: NNW 85mi, 136km
Updated: Wed, 24-Apr-2019 5:56pm EDT
Overcast
Overcast
 Wind from E
Wind: E 5 mph , 7 km/h
Temperature: 48°F , 9°C
Wind Chill: 46°F , 8°C
Dew Point: 45°F , 7°C
Humidity: 87%
Barometer: 29.75 inHg , 1007.5 hPa
Clouds: Overcast
Visibility: 10 miles , 16 km
Cloud details: Overcast 6000 ft
2019/04/24 21:56 KPVC 242156Z AUTO 08004KT 10SM OVC060 09/07 A2975 RMK AO2 SLP073 T00890067 PNO $
KAQW - Savoy, Massachusetts, USA
Distance from station: NNW 66mi, 106km
Updated: Wed, 24-Apr-2019 5:52pm EDT
Overcast
Overcast
 Wind from W
Wind: W 18 mph , 30 km/h, Gust: 24 mph , 39 km/h
Temperature: 46°F , 8°C
Wind Chill: 39°F , 4°C
Dew Point: 36°F , 2°C
Humidity: 66%
Barometer: 29.84 inHg , 1010.5 hPa
Clouds: Overcast
Visibility: 10 miles , 16 km
Cloud details: Overcast 3200 ft
2019/04/24 21:52 KAQW 242152Z AUTO 27016G21KT 10SM OVC032 08/02 A2984 RMK AO2 SLP109 T00830022
 
KIZG - Fryeburg, Maine, USA
Distance from station: NNE 133mi, 214km
Updated: Wed, 24-Apr-2019 5:54pm EDT
Overcast
Overcast
 Wind from WNW
Wind: WNW 7 mph , 11 km/h
Temperature: 48°F , 9°C
Wind Chill: 45°F , 7°C
Dew Point: 37°F , 3°C
Humidity: 66%
Barometer: 29.76 inHg , 1007.8 hPa
Clouds: Overcast
Visibility: 10 miles , 16 km
Cloud details: Mostly cloudy 4200 ft
Overcast 6000 ft
2019/04/24 21:54 KIZG 242154Z AUTO 30006KT 10SM BKN042 OVC060 09/03 A2976 RMK AO2 SLP079 T00940028 TSNO
KMWN - Mt Washington, New Hampshire, USA
Distance from station: NNE 146mi, 234km
Updated: Wed, 24-Apr-2019 5:47pm EDT
Light snow, Showers, Freezing, Fog, Blowing, Snow, Overcast
Light snow, Showers, Freezing, Fog, Blowing, Snow, Overcast
 Wind from W
Wind: W 54 mph , 87 km/h
Temperature: 23°F , -5°C
Wind Chill: 1°F , -17°C
Dew Point: 23°F , -5°C
Humidity: 100%
Summary: Light snow, Showers, Freezing, Fog, Blowing, Snow
Clouds: Overcast
Visibility: 1/16 mile , 0.1 km
Cloud details: Overcast 100 ft
2019/04/24 21:47 KMWN 242147Z 28047KT 1/16SM -SHSN FZFG BLSN VV001 M05/M05 RMK VRY LGT ICG
 
KBML - Berlin, New Hampshire, USA
Distance from station: NNE 160mi, 257km
Updated: Wed, 24-Apr-2019 6:03pm EDT
Overcast
Overcast
 Wind from varies
Wind: varies 5 mph , 7 km/h
Temperature: 43°F , 6°C
Wind Chill: 40°F , 4°C
Dew Point: 37°F , 3°C
Humidity: 81%
Barometer: 29.75 inHg , 1007.5 hPa
Clouds: Overcast
Visibility: 10 miles , 16 km
Cloud details: Partly cloudy 2300 ft
Overcast 4700 ft
2019/04/24 22:03 KBML 242203Z AUTO VRB04KT 10SM SCT023 OVC047 06/03 A2975 RMK AO2 RAE02 P0000 T00610028